sensor_id;sensor_type;location;lat;lon;timestamp;pressure;altitude;pressure_sealevel;temperature;humidity
41202;BME280;26936;50.524;8.684;2024-01-30T00:00:37;100735.34;;;1.15;100.00
41202;BME280;26936;50.524;8.684;2024-01-30T00:03:03;100733.75;;;1.14;100.00
41202;BME280;26936;50.524;8.684;2024-01-30T00:05:28;100737.31;;;1.14;100.00
41202;BME280;26936;50.524;8.684;2024-01-30T00:07:53;100736.88;;;1.12;100.00
41202;BME280;26936;50.524;8.684;2024-01-30T00:10:19;100740.53;;;1.16;100.00
41202;BME280;26936;50.524;8.684;2024-01-30T00:12:44;100737.41;;;1.18;100.00
41202;BME280;26936;50.524;8.684;2024-01-30T00:15:09;100742.59;;;1.19;100.00
41202;BME280;26936;50.524;8.684;2024-01-30T00:17:36;100731.94;;;1.21;100.00
41202;BME280;26936;50.524;8.684;2024-01-30T00:20:02;100730.78;;;1.22;100.00
41202;BME280;26936;50.524;8.684;2024-01-30T00:22:30;100727.94;;;1.19;100.00
41202;BME280;26936;50.524;8.684;2024-01-30T00:24:56;100731.75;;;1.14;100.00
41202;BME280;26936;50.524;8.684;2024-01-30T00:27:21;100733.66;;;1.10;100.00
41202;BME280;26936;50.524;8.684;2024-01-30T00:29:46;100740.00;;;1.11;100.00
41202;BME280;26936;50.524;8.684;2024-01-30T00:32:12;100733.91;;;1.05;100.00
41202;BME280;26936;50.524;8.684;2024-01-30T00:34:37;100744.75;;;1.10;100.00
41202;BME280;26936;50.524;8.684;2024-01-30T00:37:02;100739.56;;;1.09;100.00
41202;BME280;26936;50.524;8.684;2024-01-30T00:39:28;100737.88;;;1.04;100.00
41202;BME280;26936;50.524;8.684;2024-01-30T00:41:53;100740.97;;;1.03;100.00
41202;BME280;26936;50.524;8.684;2024-01-30T00:44:18;100732.13;;;0.97;100.00
41202;BME280;26936;50.524;8.684;2024-01-30T00:46:43;100738.81;;;0.96;100.00
41202;BME280;26936;50.524;8.684;2024-01-30T00:49:10;100741.59;;;0.96;100.00
41202;BME280;26936;50.524;8.684;2024-01-30T00:51:35;100744.72;;;0.95;100.00
41202;BME280;26936;50.524;8.684;2024-01-30T00:54:01;100737.47;;;0.90;100.00
41202;BME280;26936;50.524;8.684;2024-01-30T00:56:28;100734.25;;;0.88;100.00
41202;BME280;26936;50.524;8.684;2024-01-30T00:58:53;100740.59;;;0.89;100.00
41202;BME280;26936;50.524;8.684;2024-01-30T01:01:18;100734.59;;;0.87;100.00
41202;BME280;26936;50.524;8.684;2024-01-30T01:03:44;100736.13;;;0.84;100.00
41202;BME280;26936;50.524;8.684;2024-01-30T01:06:09;100734.94;;;0.85;100.00
41202;BME280;26936;50.524;8.684;2024-01-30T01:08:35;100747.69;;;0.86;100.00
41202;BME280;26936;50.524;8.684;2024-01-30T01:11:00;100738.19;;;0.87;100.00
41202;BME280;26936;50.524;8.684;2024-01-30T01:13:25;100736.59;;;0.86;100.00
41202;BME280;26936;50.524;8.684;2024-01-30T01:15:50;100742.50;;;0.85;100.00
41202;BME280;26936;50.524;8.684;2024-01-30T01:18:16;100738.44;;;0.82;100.00
41202;BME280;26936;50.524;8.684;2024-01-30T01:20:41;100738.59;;;0.74;100.00
41202;BME280;26936;50.524;8.684;2024-01-30T01:23:06;100744.50;;;0.72;100.00
41202;BME280;26936;50.524;8.684;2024-01-30T01:25:32;100743.34;;;0.73;100.00
41202;BME280;26936;50.524;8.684;2024-01-30T01:27:57;100744.13;;;0.74;100.00
41202;BME280;26936;50.524;8.684;2024-01-30T01:30:22;100736.53;;;0.71;100.00
41202;BME280;26936;50.524;8.684;2024-01-30T01:32:48;100735.72;;;0.70;100.00
41202;BME280;26936;50.524;8.684;2024-01-30T01:35:22;100733.13;;;0.62;100.00
41202;BME280;26936;50.524;8.684;2024-01-30T01:37:49;100735.19;;;0.65;100.00
41202;BME280;26936;50.524;8.684;2024-01-30T01:40:21;100728.38;;;0.62;100.00
41202;BME280;26936;50.524;8.684;2024-01-30T01:42:46;100728.81;;;0.64;100.00
41202;BME280;26936;50.524;8.684;2024-01-30T01:45:11;100725.94;;;0.61;100.00
41202;BME280;26936;50.524;8.684;2024-01-30T01:47:36;100722.81;;;0.62;100.00
41202;BME280;26936;50.524;8.684;2024-01-30T01:50:02;100722.75;;;0.59;100.00
41202;BME280;26936;50.524;8.684;2024-01-30T01:52:28;100728.19;;;0.55;100.00
41202;BME280;26936;50.524;8.684;2024-01-30T01:54:53;100723.38;;;0.68;100.00
41202;BME280;26936;50.524;8.684;2024-01-30T01:57:19;100726.31;;;0.59;100.00
41202;BME280;26936;50.524;8.684;2024-01-30T01:59:45;100727.13;;;0.60;100.00
41202;BME280;26936;50.524;8.684;2024-01-30T02:02:11;100730.97;;;0.55;100.00
41202;BME280;26936;50.524;8.684;2024-01-30T02:04:38;100725.66;;;0.50;100.00
41202;BME280;26936;50.524;8.684;2024-01-30T02:07:03;100725.22;;;0.48;100.00
41202;BME280;26936;50.524;8.684;2024-01-30T02:09:28;100722.66;;;0.55;100.00
41202;BME280;26936;50.524;8.684;2024-01-30T02:11:54;100728.97;;;0.56;100.00
41202;BME280;26936;50.524;8.684;2024-01-30T02:14:20;100728.81;;;0.49;100.00
41202;BME280;26936;50.524;8.684;2024-01-30T02:16:45;100710.19;;;0.49;100.00
41202;BME280;26936;50.524;8.684;2024-01-30T02:19:10;100713.31;;;0.48;100.00
41202;BME280;26936;50.524;8.684;2024-01-30T02:21:36;100705.16;;;0.39;100.00
41202;BME280;26936;50.524;8.684;2024-01-30T02:24:02;100712.66;;;0.39;100.00
41202;BME280;26936;50.524;8.684;2024-01-30T02:26:28;100716.66;;;0.26;100.00
41202;BME280;26936;50.524;8.684;2024-01-30T02:28:53;100730.59;;;0.29;100.00
41202;BME280;26936;50.524;8.684;2024-01-30T02:31:18;100721.13;;;0.30;100.00
41202;BME280;26936;50.524;8.684;2024-01-30T02:33:43;100722.09;;;0.22;100.00
41202;BME280;26936;50.524;8.684;2024-01-30T02:36:09;100721.25;;;0.22;100.00
41202;BME280;26936;50.524;8.684;2024-01-30T02:38:34;100717.47;;;0.26;100.00
41202;BME280;26936;50.524;8.684;2024-01-30T02:40:59;100711.47;;;0.24;100.00
41202;BME280;26936;50.524;8.684;2024-01-30T02:43:25;100714.94;;;0.21;100.00
41202;BME280;26936;50.524;8.684;2024-01-30T02:45:50;100711.81;;;0.23;100.00
41202;BME280;26936;50.524;8.684;2024-01-30T02:48:16;100710.19;;;0.22;100.00
41202;BME280;26936;50.524;8.684;2024-01-30T02:50:41;100710.91;;;0.19;100.00
41202;BME280;26936;50.524;8.684;2024-01-30T02:53:06;100712.41;;;0.16;100.00
41202;BME280;26936;50.524;8.684;2024-01-30T02:55:31;100712.94;;;0.22;100.00
41202;BME280;26936;50.524;8.684;2024-01-30T02:57:57;100704.53;;;0.18;100.00
41202;BME280;26936;50.524;8.684;2024-01-30T03:00:22;100698.66;;;0.20;100.00
41202;BME280;26936;50.524;8.684;2024-01-30T03:02:47;100703.75;;;0.18;100.00
41202;BME280;26936;50.524;8.684;2024-01-30T03:05:13;100700.88;;;0.14;100.00
41202;BME280;26936;50.524;8.684;2024-01-30T03:07:38;100704.84;;;0.29;100.00
41202;BME280;26936;50.524;8.684;2024-01-30T03:10:06;100706.31;;;0.38;100.00
41202;BME280;26936;50.524;8.684;2024-01-30T03:12:32;100694.59;;;0.29;100.00
41202;BME280;26936;50.524;8.684;2024-01-30T03:14:58;100692.06;;;0.24;100.00
41202;BME280;26936;50.524;8.684;2024-01-30T03:17:23;100689.94;;;0.33;100.00
41202;BME280;26936;50.524;8.684;2024-01-30T03:19:49;100688.34;;;0.32;100.00
41202;BME280;26936;50.524;8.684;2024-01-30T03:22:14;100693.41;;;0.30;100.00
41202;BME280;26936;50.524;8.684;2024-01-30T03:24:39;100695.31;;;0.26;100.00
41202;BME280;26936;50.524;8.684;2024-01-30T03:27:05;100694.03;;;0.24;100.00
41202;BME280;26936;50.524;8.684;2024-01-30T03:29:30;100697.84;;;0.19;100.00
41202;BME280;26936;50.524;8.684;2024-01-30T03:31:55;100697.75;;;0.16;100.00
41202;BME280;26936;50.524;8.684;2024-01-30T03:34:21;100703.84;;;0.21;100.00
41202;BME280;26936;50.524;8.684;2024-01-30T03:36:46;100702.22;;;0.20;100.00
41202;BME280;26936;50.524;8.684;2024-01-30T03:39:11;100704.69;;;0.10;100.00
41202;BME280;26936;50.524;8.684;2024-01-30T03:41:36;100701.25;;;0.00;100.00
41202;BME280;26936;50.524;8.684;2024-01-30T03:44:02;100701.81;;;0.06;100.00
41202;BME280;26936;50.524;8.684;2024-01-30T03:46:27;100700.53;;;0.03;100.00
41202;BME280;26936;50.524;8.684;2024-01-30T03:48:52;100695.69;;;0.13;100.00
41202;BME280;26936;50.524;8.684;2024-01-30T03:51:18;100685.66;;;0.08;100.00
41202;BME280;26936;50.524;8.684;2024-01-30T03:53:43;100690.38;;;0.08;100.00
41202;BME280;26936;50.524;8.684;2024-01-30T03:56:09;100679.66;;;0.06;100.00
41202;BME280;26936;50.524;8.684;2024-01-30T03:58:35;100687.97;;;0.06;100.00
41202;BME280;26936;50.524;8.684;2024-01-30T04:01:00;100684.28;;;0.02;100.00
41202;BME280;26936;50.524;8.684;2024-01-30T04:03:26;100678.84;;;0.06;100.00
41202;BME280;26936;50.524;8.684;2024-01-30T04:05:52;100678.09;;;-0.07;100.00
41202;BME280;26936;50.524;8.684;2024-01-30T04:08:17;100670.91;;;-0.08;100.00
41202;BME280;26936;50.524;8.684;2024-01-30T04:10:43;100665.03;;;-0.07;100.00
41202;BME280;26936;50.524;8.684;2024-01-30T04:13:08;100674.94;;;0.07;100.00
41202;BME280;26936;50.524;8.684;2024-01-30T04:15:34;100670.06;;;0.03;100.00
41202;BME280;26936;50.524;8.684;2024-01-30T04:18:00;100672.16;;;0.07;100.00
41202;BME280;26936;50.524;8.684;2024-01-30T04:20:25;100667.78;;;0.06;100.00
41202;BME280;26936;50.524;8.684;2024-01-30T04:22:51;100663.50;;;0.08;100.00
41202;BME280;26936;50.524;8.684;2024-01-30T04:25:16;100670.56;;;-0.07;100.00
41202;BME280;26936;50.524;8.684;2024-01-30T04:27:41;100678.25;;;0.12;100.00
41202;BME280;26936;50.524;8.684;2024-01-30T04:30:07;100671.94;;;-0.01;100.00
41202;BME280;26936;50.524;8.684;2024-01-30T04:32:33;100678.75;;;0.02;100.00
41202;BME280;26936;50.524;8.684;2024-01-30T04:34:58;100672.56;;;-0.07;100.00
41202;BME280;26936;50.524;8.684;2024-01-30T04:37:24;100677.72;;;0.07;100.00
41202;BME280;26936;50.524;8.684;2024-01-30T04:39:50;100674.59;;;0.08;100.00
41202;BME280;26936;50.524;8.684;2024-01-30T04:42:15;100676.19;;;0.09;100.00
41202;BME280;26936;50.524;8.684;2024-01-30T04:44:40;100677.03;;;-0.03;100.00
41202;BME280;26936;50.524;8.684;2024-01-30T04:47:06;100678.38;;;0.03;100.00
41202;BME280;26936;50.524;8.684;2024-01-30T04:49:37;100673.59;;;-0.12;100.00
41202;BME280;26936;50.524;8.684;2024-01-30T04:52:04;100682.69;;;-0.11;100.00
41202;BME280;26936;50.524;8.684;2024-01-30T04:54:29;100676.81;;;-0.10;100.00
41202;BME280;26936;50.524;8.684;2024-01-30T04:56:54;100677.63;;;-0.09;100.00
41202;BME280;26936;50.524;8.684;2024-01-30T04:59:20;100676.75;;;-0.25;100.00
41202;BME280;26936;50.524;8.684;2024-01-30T05:01:45;100680.53;;;-0.18;100.00
41202;BME280;26936;50.524;8.684;2024-01-30T05:04:11;100684.69;;;-0.12;100.00
41202;BME280;26936;50.524;8.684;2024-01-30T05:06:37;100680.19;;;-0.16;100.00
41202;BME280;26936;50.524;8.684;2024-01-30T05:09:02;100678.81;;;-0.22;100.00
41202;BME280;26936;50.524;8.684;2024-01-30T05:11:29;100678.00;;;-0.23;100.00
41202;BME280;26936;50.524;8.684;2024-01-30T05:13:54;100679.97;;;-0.23;100.00
41202;BME280;26936;50.524;8.684;2024-01-30T05:16:20;100666.50;;;-0.25;100.00
41202;BME280;26936;50.524;8.684;2024-01-30T05:18:45;100677.09;;;-0.27;100.00
41202;BME280;26936;50.524;8.684;2024-01-30T05:21:10;100681.34;;;-0.29;100.00
41202;BME280;26936;50.524;8.684;2024-01-30T05:23:36;100682.63;;;-0.27;100.00
41202;BME280;26936;50.524;8.684;2024-01-30T05:26:02;100683.09;;;-0.25;100.00
41202;BME280;26936;50.524;8.684;2024-01-30T05:28:28;100677.56;;;-0.25;100.00
41202;BME280;26936;50.524;8.684;2024-01-30T05:30:54;100689.53;;;-0.21;100.00
41202;BME280;26936;50.524;8.684;2024-01-30T05:33:19;100685.16;;;-0.22;100.00
41202;BME280;26936;50.524;8.684;2024-01-30T05:35:44;100679.97;;;-0.23;100.00
41202;BME280;26936;50.524;8.684;2024-01-30T05:38:11;100687.47;;;-0.24;100.00
41202;BME280;26936;50.524;8.684;2024-01-30T05:40:36;100685.06;;;-0.25;100.00
41202;BME280;26936;50.524;8.684;2024-01-30T05:43:01;100686.19;;;-0.26;100.00
41202;BME280;26936;50.524;8.684;2024-01-30T05:45:27;100684.25;;;-0.26;100.00
41202;BME280;26936;50.524;8.684;2024-01-30T05:47:53;100686.31;;;-0.23;100.00
41202;BME280;26936;50.524;8.684;2024-01-30T05:50:19;100689.78;;;-0.26;100.00
41202;BME280;26936;50.524;8.684;2024-01-30T05:52:44;100694.59;;;-0.23;100.00
41202;BME280;26936;50.524;8.684;2024-01-30T05:55:10;100683.34;;;-0.30;100.00
41202;BME280;26936;50.524;8.684;2024-01-30T05:57:37;100691.72;;;-0.26;100.00
41202;BME280;26936;50.524;8.684;2024-01-30T06:00:02;100700.03;;;-0.26;100.00
41202;BME280;26936;50.524;8.684;2024-01-30T06:02:28;100691.84;;;-0.23;100.00
41202;BME280;26936;50.524;8.684;2024-01-30T06:04:54;100694.50;;;-0.26;100.00
41202;BME280;26936;50.524;8.684;2024-01-30T06:07:19;100696.84;;;-0.28;100.00
41202;BME280;26936;50.524;8.684;2024-01-30T06:09:44;100695.19;;;-0.29;100.00
41202;BME280;26936;50.524;8.684;2024-01-30T06:12:11;100698.78;;;-0.29;100.00
41202;BME280;26936;50.524;8.684;2024-01-30T06:14:37;100694.41;;;-0.30;100.00
41202;BME280;26936;50.524;8.684;2024-01-30T06:17:02;100696.59;;;-0.35;100.00
41202;BME280;26936;50.524;8.684;2024-01-30T06:19:28;100692.66;;;-0.34;100.00
41202;BME280;26936;50.524;8.684;2024-01-30T06:21:53;100683.13;;;-0.37;100.00
41202;BME280;26936;50.524;8.684;2024-01-30T06:24:19;100688.31;;;-0.35;100.00
41202;BME280;26936;50.524;8.684;2024-01-30T06:26:44;100687.94;;;-0.34;100.00
41202;BME280;26936;50.524;8.684;2024-01-30T06:29:09;100685.28;;;-0.30;100.00
41202;BME280;26936;50.524;8.684;2024-01-30T06:31:40;100679.28;;;-0.32;100.00
41202;BME280;26936;50.524;8.684;2024-01-30T06:34:06;100679.66;;;-0.34;100.00
41202;BME280;26936;50.524;8.684;2024-01-30T06:36:31;100686.91;;;-0.29;100.00
41202;BME280;26936;50.524;8.684;2024-01-30T06:38:57;100673.75;;;-0.32;100.00
41202;BME280;26936;50.524;8.684;2024-01-30T06:41:22;100674.94;;;-0.33;100.00
41202;BME280;26936;50.524;8.684;2024-01-30T06:43:47;100671.69;;;-0.35;100.00
41202;BME280;26936;50.524;8.684;2024-01-30T06:46:12;100669.16;;;-0.28;100.00
41202;BME280;26936;50.524;8.684;2024-01-30T06:48:38;100671.69;;;-0.23;100.00
41202;BME280;26936;50.524;8.684;2024-01-30T06:51:05;100672.63;;;-0.31;100.00
41202;BME280;26936;50.524;8.684;2024-01-30T06:53:30;100673.50;;;-0.15;100.00
41202;BME280;26936;50.524;8.684;2024-01-30T06:55:56;100673.41;;;0.09;100.00
41202;BME280;26936;50.524;8.684;2024-01-30T06:58:21;100671.84;;;0.24;100.00
41202;BME280;26936;50.524;8.684;2024-01-30T07:00:46;100674.88;;;0.19;100.00
41202;BME280;26936;50.524;8.684;2024-01-30T07:03:12;100677.75;;;0.22;100.00
41202;BME280;26936;50.524;8.684;2024-01-30T07:05:37;100673.09;;;-0.02;100.00
41202;BME280;26936;50.524;8.684;2024-01-30T07:08:02;100690.38;;;0.08;100.00
41202;BME280;26936;50.524;8.684;2024-01-30T07:10:28;100679.09;;;0.00;100.00
41202;BME280;26936;50.524;8.684;2024-01-30T07:12:53;100677.13;;;0.01;100.00
41202;BME280;26936;50.524;8.684;2024-01-30T07:15:19;100678.03;;;0.05;100.00
41202;BME280;26936;50.524;8.684;2024-01-30T07:17:45;100685.66;;;0.08;100.00
41202;BME280;26936;50.524;8.684;2024-01-30T07:20:11;100683.31;;;0.10;100.00
41202;BME280;26936;50.524;8.684;2024-01-30T07:22:36;100686.66;;;0.16;100.00
41202;BME280;26936;50.524;8.684;2024-01-30T07:25:02;100680.19;;;0.12;100.00
41202;BME280;26936;50.524;8.684;2024-01-30T07:27:27;100676.91;;;0.06;100.00
41202;BME280;26936;50.524;8.684;2024-01-30T07:29:52;100692.66;;;-0.10;100.00
41202;BME280;26936;50.524;8.684;2024-01-30T07:32:17;100696.25;;;-0.22;100.00
41202;BME280;26936;50.524;8.684;2024-01-30T07:34:43;100690.91;;;-0.15;100.00
41202;BME280;26936;50.524;8.684;2024-01-30T07:37:09;100692.19;;;-0.24;100.00
41202;BME280;26936;50.524;8.684;2024-01-30T07:39:35;100697.84;;;-0.21;100.00
41202;BME280;26936;50.524;8.684;2024-01-30T07:42:01;100693.31;;;-0.13;100.00
41202;BME280;26936;50.524;8.684;2024-01-30T07:44:26;100691.38;;;-0.13;100.00
41202;BME280;26936;50.524;8.684;2024-01-30T07:46:51;100687.53;;;-0.08;100.00
41202;BME280;26936;50.524;8.684;2024-01-30T07:49:17;100688.94;;;-0.02;100.00
41202;BME280;26936;50.524;8.684;2024-01-30T07:51:42;100693.28;;;-0.01;100.00
41202;BME280;26936;50.524;8.684;2024-01-30T07:54:08;100693.75;;;0.01;100.00
41202;BME280;26936;50.524;8.684;2024-01-30T07:56:33;100696.19;;;0.03;100.00
41202;BME280;26936;50.524;8.684;2024-01-30T07:58:58;100686.34;;;0.05;100.00
41202;BME280;26936;50.524;8.684;2024-01-30T08:01:24;100690.38;;;0.08;100.00
41202;BME280;26936;50.524;8.684;2024-01-30T08:03:49;100694.50;;;0.14;100.00
41202;BME280;26936;50.524;8.684;2024-01-30T08:06:14;100699.81;;;0.19;100.00
41202;BME280;26936;50.524;8.684;2024-01-30T08:08:40;100710.66;;;0.24;100.00
41202;BME280;26936;50.524;8.684;2024-01-30T08:11:05;100708.09;;;0.31;100.00
41202;BME280;26936;50.524;8.684;2024-01-30T08:13:30;100702.41;;;0.39;100.00
41202;BME280;26936;50.524;8.684;2024-01-30T08:15:56;100707.94;;;0.39;100.00
41202;BME280;26936;50.524;8.684;2024-01-30T08:18:21;100719.56;;;0.45;100.00
41202;BME280;26936;50.524;8.684;2024-01-30T08:20:46;100726.03;;;0.49;100.00
41202;BME280;26936;50.524;8.684;2024-01-30T08:23:12;100719.56;;;0.45;100.00
41202;BME280;26936;50.524;8.684;2024-01-30T08:25:37;100727.72;;;0.53;100.00
41202;BME280;26936;50.524;8.684;2024-01-30T08:28:03;100717.53;;;0.57;100.00
41202;BME280;26936;50.524;8.684;2024-01-30T08:30:29;100726.31;;;0.59;100.00
41202;BME280;26936;50.524;8.684;2024-01-30T08:32:54;100721.69;;;0.63;100.00
41202;BME280;26936;50.524;8.684;2024-01-30T08:35:19;100724.09;;;0.65;100.00
41202;BME280;26936;50.524;8.684;2024-01-30T08:37:45;100725.09;;;0.72;100.00
41202;BME280;26936;50.524;8.684;2024-01-30T08:40:10;100730.09;;;0.67;100.00
41202;BME280;26936;50.524;8.684;2024-01-30T08:42:35;100719.28;;;0.77;100.00
41202;BME280;26936;50.524;8.684;2024-01-30T08:45:01;100730.69;;;0.88;100.00
41202;BME280;26936;50.524;8.684;2024-01-30T08:47:26;100728.06;;;0.95;100.00
41202;BME280;26936;50.524;8.684;2024-01-30T08:49:52;100732.94;;;0.98;100.00
41202;BME280;26936;50.524;8.684;2024-01-30T08:52:17;100728.56;;;1.12;100.00
41202;BME280;26936;50.524;8.684;2024-01-30T08:54:42;100733.13;;;1.20;100.00
41202;BME280;26936;50.524;8.684;2024-01-30T08:57:08;100733.75;;;1.29;100.00
41202;BME280;26936;50.524;8.684;2024-01-30T08:59:33;100737.16;;;1.38;100.00
41202;BME280;26936;50.524;8.684;2024-01-30T09:01:58;100733.13;;;1.52;100.00
41202;BME280;26936;50.524;8.684;2024-01-30T09:04:24;100726.66;;;1.63;100.00
41202;BME280;26936;50.524;8.684;2024-01-30T09:06:49;100741.88;;;1.69;100.00
41202;BME280;26936;50.524;8.684;2024-01-30T09:09:15;100741.97;;;1.73;100.00
41202;BME280;26936;50.524;8.684;2024-01-30T09:11:40;100745.59;;;1.77;100.00
41202;BME280;26936;50.524;8.684;2024-01-30T09:14:06;100746.50;;;1.81;100.00
41202;BME280;26936;50.524;8.684;2024-01-30T09:16:31;100742.63;;;1.85;100.00
41202;BME280;26936;50.524;8.684;2024-01-30T09:18:57;100747.09;;;1.90;100.00
41202;BME280;26936;50.524;8.684;2024-01-30T09:21:22;100748.66;;;1.87;100.00
41202;BME280;26936;50.524;8.684;2024-01-30T09:23:48;100742.53;;;1.97;100.00
41202;BME280;26936;50.524;8.684;2024-01-30T09:26:13;100740.41;;;2.10;100.00
41202;BME280;26936;50.524;8.684;2024-01-30T09:28:38;100743.28;;;2.13;100.00
41202;BME280;26936;50.524;8.684;2024-01-30T09:31:04;100745.03;;;2.21;100.00
41202;BME280;26936;50.524;8.684;2024-01-30T09:33:29;100739.84;;;2.20;100.00
41202;BME280;26936;50.524;8.684;2024-01-30T09:35:54;100727.78;;;2.31;100.00
41202;BME280;26936;50.524;8.684;2024-01-30T09:38:20;100737.22;;;2.46;100.00
41202;BME280;26936;50.524;8.684;2024-01-30T09:40:53;100742.22;;;2.56;100.00
41202;BME280;26936;50.524;8.684;2024-01-30T09:43:22;100724.06;;;2.62;100.00
41202;BME280;26936;50.524;8.684;2024-01-30T09:45:50;100731.00;;;2.71;100.00
41202;BME280;26936;50.524;8.684;2024-01-30T09:48:15;100728.78;;;2.81;100.00
41202;BME280;26936;50.524;8.684;2024-01-30T09:50:41;100722.50;;;2.84;100.00
41202;BME280;26936;50.524;8.684;2024-01-30T09:53:08;100738.50;;;2.90;100.00
41202;BME280;26936;50.524;8.684;2024-01-30T09:55:35;100734.38;;;2.81;100.00
41202;BME280;26936;50.524;8.684;2024-01-30T09:58:01;100736.69;;;2.78;100.00
41202;BME280;26936;50.524;8.684;2024-01-30T10:00:26;100731.22;;;2.82;100.00
41202;BME280;26936;50.524;8.684;2024-01-30T10:02:53;100738.63;;;2.97;100.00
41202;BME280;26936;50.524;8.684;2024-01-30T10:05:19;100734.69;;;2.98;100.00
41202;BME280;26936;50.524;8.684;2024-01-30T10:07:55;100729.88;;;3.18;100.00
41202;BME280;26936;50.524;8.684;2024-01-30T10:10:23;100723.31;;;3.29;100.00
41202;BME280;26936;50.524;8.684;2024-01-30T10:12:49;100724.53;;;3.32;100.00
41202;BME280;26936;50.524;8.684;2024-01-30T10:15:14;100729.06;;;3.17;100.00
41202;BME280;26936;50.524;8.684;2024-01-30T10:17:40;100725.59;;;3.24;100.00
41202;BME280;26936;50.524;8.684;2024-01-30T10:20:06;100728.59;;;3.34;100.00
41202;BME280;26936;50.524;8.684;2024-01-30T10:22:33;100715.81;;;3.33;100.00
41202;BME280;26936;50.524;8.684;2024-01-30T10:24:58;100717.91;;;3.40;100.00
41202;BME280;26936;50.524;8.684;2024-01-30T10:27:28;100718.78;;;3.44;100.00
41202;BME280;26936;50.524;8.684;2024-01-30T10:29:55;100703.81;;;3.52;100.00
41202;BME280;26936;50.524;8.684;2024-01-30T10:32:20;100700.84;;;3.67;100.00
41202;BME280;26936;50.524;8.684;2024-01-30T10:34:46;100699.84;;;3.79;100.00
41202;BME280;26936;50.524;8.684;2024-01-30T10:37:11;100695.22;;;3.90;100.00
41202;BME280;26936;50.524;8.684;2024-01-30T10:39:42;100702.91;;;4.00;100.00
41202;BME280;26936;50.524;8.684;2024-01-30T10:42:15;100706.63;;;4.07;100.00
41202;BME280;26936;50.524;8.684;2024-01-30T10:47:27;100700.84;;;3.93;100.00
41202;BME280;26936;50.524;8.684;2024-01-30T10:49:54;100696.63;;;4.06;100.00
41202;BME280;26936;50.524;8.684;2024-01-30T10:52:19;100709.81;;;4.06;100.00
41202;BME280;26936;50.524;8.684;2024-01-30T10:54:46;100700.56;;;4.02;100.00
41202;BME280;26936;50.524;8.684;2024-01-30T10:57:12;100704.59;;;4.04;100.00
41202;BME280;26936;50.524;8.684;2024-01-30T10:59:39;100705.16;;;4.17;100.00
41202;BME280;26936;50.524;8.684;2024-01-30T11:02:06;100698.56;;;4.29;100.00
41202;BME280;26936;50.524;8.684;2024-01-30T11:04:38;100702.22;;;4.36;100.00
41202;BME280;26936;50.524;8.684;2024-01-30T11:09:48;100697.56;;;4.80;100.00
41202;BME280;26936;50.524;8.684;2024-01-30T11:12:13;100699.72;;;4.94;100.00
41202;BME280;26936;50.524;8.684;2024-01-30T11:14:38;100706.56;;;5.03;100.00
41202;BME280;26936;50.524;8.684;2024-01-30T11:17:05;100702.63;;;5.08;100.00
41202;BME280;26936;50.524;8.684;2024-01-30T11:19:32;100702.28;;;5.13;100.00
41202;BME280;26936;50.524;8.684;2024-01-30T11:21:58;100703.94;;;5.21;100.00
41202;BME280;26936;50.524;8.684;2024-01-30T11:24:24;100698.44;;;5.28;100.00
41202;BME280;26936;50.524;8.684;2024-01-30T11:26:55;100708.88;;;5.34;100.00
41202;BME280;26936;50.524;8.684;2024-01-30T11:29:27;100694.94;;;5.38;100.00
41202;BME280;26936;50.524;8.684;2024-01-30T11:31:57;100704.56;;;5.44;100.00
41202;BME280;26936;50.524;8.684;2024-01-30T11:34:23;100700.97;;;5.47;100.00
41202;BME280;26936;50.524;8.684;2024-01-30T11:36:52;100708.97;;;5.48;100.00
41202;BME280;26936;50.524;8.684;2024-01-30T11:39:24;100711.78;;;5.48;100.00
41202;BME280;26936;50.524;8.684;2024-01-30T11:41:50;100714.56;;;5.48;100.00
41202;BME280;26936;50.524;8.684;2024-01-30T11:44:16;100708.66;;;5.57;100.00
41202;BME280;26936;50.524;8.684;2024-01-30T11:46:42;100697.03;;;5.48;100.00
41202;BME280;26936;50.524;8.684;2024-01-30T11:49:07;100700.09;;;5.36;100.00
41202;BME280;26936;50.524;8.684;2024-01-30T11:51:32;100695.72;;;5.38;100.00
41202;BME280;26936;50.524;8.684;2024-01-30T11:53:58;100706.47;;;5.33;100.00
41202;BME280;26936;50.524;8.684;2024-01-30T11:56:24;100699.53;;;5.16;100.00
41202;BME280;26936;50.524;8.684;2024-01-30T11:58:50;100688.38;;;5.20;100.00
41202;BME280;26936;50.524;8.684;2024-01-30T12:01:17;100700.72;;;5.19;100.00
41202;BME280;26936;50.524;8.684;2024-01-30T12:03:42;100706.38;;;5.26;100.00
41202;BME280;26936;50.524;8.684;2024-01-30T12:06:08;100695.28;;;5.33;100.00
41202;BME280;26936;50.524;8.684;2024-01-30T12:08:33;100691.31;;;5.37;100.00
41202;BME280;26936;50.524;8.684;2024-01-30T12:10:58;100689.38;;;5.45;100.00
41202;BME280;26936;50.524;8.684;2024-01-30T12:13:26;100686.28;;;5.57;100.00
41202;BME280;26936;50.524;8.684;2024-01-30T12:15:51;100697.25;;;5.80;100.00
41202;BME280;26936;50.524;8.684;2024-01-30T12:18:20;100677.81;;;5.94;100.00
41202;BME280;26936;50.524;8.684;2024-01-30T12:20:45;100678.69;;;6.08;100.00
41202;BME280;26936;50.524;8.684;2024-01-30T12:23:12;100679.97;;;6.25;100.00
41202;BME280;26936;50.524;8.684;2024-01-30T12:25:38;100668.78;;;6.32;100.00
41202;BME280;26936;50.524;8.684;2024-01-30T12:28:03;100663.63;;;6.37;100.00
41202;BME280;26936;50.524;8.684;2024-01-30T12:30:29;100654.47;;;6.47;100.00
41202;BME280;26936;50.524;8.684;2024-01-30T12:32:55;100652.06;;;6.49;100.00
41202;BME280;26936;50.524;8.684;2024-01-30T12:35:20;100658.88;;;6.48;100.00
41202;BME280;26936;50.524;8.684;2024-01-30T12:37:47;100659.69;;;6.56;100.00
41202;BME280;26936;50.524;8.684;2024-01-30T12:40:13;100653.72;;;6.57;100.00
41202;BME280;26936;50.524;8.684;2024-01-30T12:42:42;100658.50;;;6.67;100.00
41202;BME280;26936;50.524;8.684;2024-01-30T12:45:08;100660.53;;;6.63;100.00